Time;durP1;ratioP1;P1;durP2;ratioP2;P2;SDS_P1;SDS_P2;PMS_P1;PMS_P2;Temp;Humidity;BMP_temperature;BMP_pressure;BME280_temperature;BME280_humidity;BME280_pressure;Samples;Min_cycle;Max_cycle;Signal;HPM_P1;HPM_P2
2022/05/04 00:00:09;;;;;;;15.80;10.63;;;11.60;1.00;;;;;;5058554;28;20753;-53
2022/05/04 00:02:37;;;;;;;15.18;10.65;;;11.80;1.00;;;;;;5059145;28;20382;-54
2022/05/04 00:05:04;;;;;;;15.73;10.15;;;11.80;1.00;;;;;;5059830;28;20393;-54
2022/05/04 00:07:30;;;;;;;16.15;9.77;;;11.70;1.00;;;;;;5063430;28;20435;-54
2022/05/04 00:09:57;;;;;;;15.32;9.82;;;11.70;1.00;;;;;;5062006;28;20384;-54
2022/05/04 00:12:24;;;;;;;13.95;9.60;;;11.80;1.00;;;;;;5061886;28;20405;-54
2022/05/04 00:14:49;;;;;;;16.65;9.63;;;11.80;1.00;;;;;;5061216;28;20754;-53
2022/05/04 00:17:15;;;;;;;15.27;10.50;;;11.90;1.00;;;;;;5063306;28;20397;-53
2022/05/04 00:19:41;;;;;;;15.05;10.40;;;11.90;1.00;;;;;;5060643;28;20397;-54
2022/05/04 00:22:06;;;;;;;13.60;9.40;;;11.90;1.00;;;;;;5061277;28;20380;-54
2022/05/04 00:29:48;;;;;;;15.30;9.88;;;11.80;1.00;;;;;;4950160;28;20456;-52
2022/05/04 00:32:17;;;;;;;16.88;9.52;;;11.80;1.00;;;;;;4952828;29;20405;-52
2022/05/04 00:34:43;;;;;;;15.00;10.30;;;11.60;1.00;;;;;;4953910;29;20890;-52
2022/05/04 00:37:09;;;;;;;15.57;10.23;;;11.60;1.00;;;;;;4953216;29;20390;-52
2022/05/04 00:39:34;;;;;;;15.82;10.07;;;11.60;1.00;;;;;;4952948;29;20398;-52
2022/05/04 00:42:07;;;;;;;16.40;10.50;;;11.70;1.00;;;;;;4953377;29;20836;-52
2022/05/04 00:44:33;;;;;;;15.40;10.17;;;11.70;1.00;;;;;;4953713;29;20406;-52
2022/05/04 00:46:59;;;;;;;15.05;9.35;;;11.70;1.00;;;;;;4952934;29;20913;-52
2022/05/04 00:49:24;;;;;;;13.80;9.20;;;11.70;1.00;;;;;;4953622;28;20409;-52
2022/05/04 00:51:50;;;;;;;14.73;10.15;;;11.70;1.00;;;;;;4953227;28;20537;-52
2022/05/04 00:54:16;;;;;;;16.10;9.80;;;11.70;1.00;;;;;;4953018;29;20394;-52
2022/05/04 00:56:42;;;;;;;15.98;10.40;;;11.70;1.00;;;;;;4953416;29;20433;-52
2022/05/04 00:59:08;;;;;;;14.45;9.70;;;11.70;1.00;;;;;;4953116;28;20910;-52
2022/05/04 01:01:34;;;;;;;14.50;9.83;;;11.70;1.00;;;;;;4953513;29;20762;-52
2022/05/04 01:04:00;;;;;;;17.65;10.68;;;11.70;1.00;;;;;;4952216;28;20461;-52
2022/05/04 01:06:26;;;;;;;15.90;9.93;;;11.70;1.00;;;;;;4953522;29;20829;-53
2022/05/04 01:08:53;;;;;;;16.00;10.20;;;11.80;1.00;;;;;;4952182;28;20489;-52
2022/05/04 01:11:20;;;;;;;14.90;10.00;;;11.80;1.00;;;;;;4954059;28;20901;-52
2022/05/04 01:14:03;;;;;;;15.10;9.60;;;11.80;1.00;;;;;;4953026;28;20851;-53
2022/05/04 01:16:30;;;;;;;14.70;9.60;;;11.80;99.90;;;;;;4952702;28;20406;-53
2022/05/04 01:18:56;;;;;;;15.05;9.90;;;11.70;99.90;;;;;;4947515;29;20481;-52
2022/05/04 01:21:22;;;;;;;15.52;10.45;;;11.70;99.90;;;;;;4952980;29;20820;-52
2022/05/04 01:23:47;;;;;;;15.77;9.60;;;11.60;99.90;;;;;;4953243;29;20396;-52
2022/05/04 01:26:17;;;;;;;13.85;9.43;;;11.60;99.90;;;;;;4952345;28;21297;-53
2022/05/04 01:28:46;;;;;;;14.95;10.18;;;11.50;1.00;;;;;;4952671;28;20508;-52
2022/05/04 01:31:12;;;;;;;15.45;10.00;;;11.60;1.00;;;;;;4951975;29;20413;-52
2022/05/04 01:33:39;;;;;;;16.05;10.07;;;11.60;1.00;;;;;;4952533;28;20898;-52
2022/05/04 01:36:05;;;;;;;16.55;11.20;;;11.50;1.00;;;;;;4952383;29;20389;-52
2022/05/04 01:38:30;;;;;;;14.38;10.30;;;11.50;1.00;;;;;;4952772;29;20406;-52
2022/05/04 01:40:56;;;;;;;15.33;10.60;;;11.40;1.00;;;;;;4949093;29;20382;-52
2022/05/04 01:43:21;;;;;;;17.13;10.13;;;11.30;1.00;;;;;;4952719;29;20859;-52
2022/05/04 01:45:47;;;;;;;16.45;11.07;;;11.30;1.00;;;;;;4952807;29;20426;-52
2022/05/04 01:48:13;;;;;;;15.33;10.33;;;11.30;1.00;;;;;;4948640;29;21035;-53
2022/05/04 01:50:38;;;;;;;16.30;11.27;;;11.30;1.00;;;;;;4952496;29;20393;-52
2022/05/04 01:53:04;;;;;;;17.30;10.77;;;11.10;1.00;;;;;;4951413;29;20955;-52
2022/05/04 01:55:33;;;;;;;17.70;10.60;;;11.00;1.00;;;;;;4952532;28;20889;-53
2022/05/04 01:57:58;;;;;;;15.70;11.02;;;11.00;1.00;;;;;;4948906;29;20435;-53
2022/05/04 02:00:24;;;;;;;19.00;10.97;;;11.10;1.00;;;;;;4952609;29;20862;-53
2022/05/04 02:02:50;;;;;;;14.40;9.90;;;11.10;1.00;;;;;;4951531;29;20402;-52
2022/05/04 02:05:16;;;;;;;15.77;10.32;;;11.00;1.00;;;;;;4951746;29;20427;-53
2022/05/04 02:07:43;;;;;;;15.48;10.48;;;11.10;1.00;;;;;;4950844;29;20430;-52
2022/05/04 02:10:10;;;;;;;16.92;10.95;;;11.00;1.00;;;;;;4951531;29;20394;-52
2022/05/04 02:12:37;;;;;;;16.83;11.23;;;11.10;1.00;;;;;;4952203;28;20442;-52
2022/05/04 02:15:07;;;;;;;17.90;11.13;;;11.00;1.00;;;;;;4951605;28;20390;-52
2022/05/04 02:17:32;;;;;;;19.50;11.95;;;10.90;1.00;;;;;;4951950;28;20414;-52
2022/05/04 02:19:58;;;;;;;17.40;11.70;;;10.90;1.00;;;;;;4951607;29;20877;-52
2022/05/04 02:22:23;;;;;;;17.97;11.50;;;10.80;1.00;;;;;;4951711;29;20406;-52
2022/05/04 02:24:49;;;;;;;18.77;12.03;;;10.90;1.00;;;;;;4952038;29;20392;-52
2022/05/04 02:27:15;;;;;;;18.63;12.20;;;10.90;1.00;;;;;;4950588;28;20934;-52
2022/05/04 02:29:41;;;;;;;19.17;11.75;;;10.90;1.00;;;;;;4951865;28;20438;-52
2022/05/04 02:32:07;;;;;;;18.90;11.90;;;11.00;1.00;;;;;;4950898;29;20500;-52
2022/05/04 02:34:33;;;;;;;18.15;11.52;;;11.10;1.00;;;;;;4944373;28;20424;-52
2022/05/04 02:39:43;;;;;;;17.13;10.80;;;11.10;1.00;;;;;;4950105;29;20440;-52
2022/05/04 02:42:10;;;;;;;18.40;11.80;;;11.00;1.00;;;;;;4949870;29;20410;-52
2022/05/04 02:44:35;;;;;;;17.92;11.50;;;11.00;1.00;;;;;;4949678;28;20409;-52
2022/05/04 02:47:01;;;;;;;18.20;11.70;;;11.00;1.00;;;;;;4950385;29;20432;-52
2022/05/04 02:49:26;;;;;;;18.05;11.23;;;11.10;1.00;;;;;;4951691;29;20394;-52
2022/05/04 02:51:52;;;;;;;18.50;12.27;;;11.20;1.00;;;;;;4950987;29;20485;-52
2022/05/04 02:54:18;;;;;;;17.63;10.83;;;11.30;1.00;;;;;;4950990;29;20394;-52
2022/05/04 02:56:43;;;;;;;16.98;11.90;;;11.30;1.00;;;;;;4951241;29;20820;-52
2022/05/04 02:59:09;;;;;;;17.13;11.27;;;11.30;1.00;;;;;;4950362;29;20911;-52
2022/05/04 03:04:19;;;;;;;17.08;11.20;;;11.30;1.00;;;;;;4950855;29;20756;-52
2022/05/04 03:06:44;;;;;;;17.85;11.50;;;11.40;1.00;;;;;;4950837;29;20418;-52
2022/05/04 03:09:11;;;;;;;17.23;11.30;;;11.30;1.00;;;;;;4950344;29;20398;-52
2022/05/04 03:11:56;;;;;;;16.70;11.02;;;11.20;1.00;;;;;;4951181;29;20925;-53
2022/05/04 03:14:23;;;;;;;16.92;11.50;;;11.20;1.00;;;;;;4949002;29;20452;-52
2022/05/04 03:16:49;;;;;;;16.73;11.55;;;11.10;1.00;;;;;;4947609;28;20420;-52
2022/05/04 03:19:15;;;;;;;18.48;10.88;;;11.20;1.00;;;;;;4950251;28;20393;-52
2022/05/04 03:21:41;;;;;;;17.63;11.85;;;11.20;1.00;;;;;;4951241;28;20398;-52
2022/05/04 03:24:07;;;;;;;17.10;11.40;;;11.20;1.00;;;;;;4950177;29;20469;-52
2022/05/04 03:26:33;;;;;;;17.00;11.27;;;11.40;1.00;;;;;;4948609;29;20445;-52
2022/05/04 03:28:59;;;;;;;17.33;11.85;;;11.40;1.00;;;;;;4950022;29;20453;-52
2022/05/04 03:31:25;;;;;;;17.93;12.60;;;11.50;1.00;;;;;;4950693;29;20401;-52
2022/05/04 03:33:50;;;;;;;18.10;11.80;;;11.50;1.00;;;;;;4948578;29;20410;-52
2022/05/04 03:36:16;;;;;;;20.33;11.93;;;11.50;1.00;;;;;;4949891;29;20945;-52
2022/05/04 03:38:44;;;;;;;18.58;11.75;;;11.50;1.00;;;;;;4951989;28;20455;-52
2022/05/04 03:41:09;;;;;;;17.08;11.52;;;11.60;1.00;;;;;;4953822;28;20785;-52
2022/05/04 03:43:35;;;;;;;18.85;11.68;;;11.60;1.00;;;;;;4952222;28;20525;-52
2022/05/04 03:46:13;;;;;;;17.30;11.77;;;11.80;1.00;;;;;;4953675;29;20875;-52
2022/05/04 03:48:39;;;;;;;19.80;12.67;;;11.80;1.00;;;;;;4951872;28;20417;-52
2022/05/04 03:51:05;;;;;;;17.63;11.70;;;11.80;1.00;;;;;;4953902;28;20762;-52
2022/05/04 03:53:30;;;;;;;16.50;11.13;;;11.80;1.00;;;;;;4954486;28;20413;-52
2022/05/04 03:55:56;;;;;;;17.40;12.00;;;11.80;1.00;;;;;;4954066;29;20437;-52
2022/05/04 03:58:22;;;;;;;20.50;12.60;;;11.90;1.00;;;;;;4954298;29;20827;-52
2022/05/04 04:00:47;;;;;;;17.20;12.83;;;11.90;1.00;;;;;;4952949;29;20831;-52
2022/05/04 04:03:13;;;;;;;17.45;12.27;;;12.00;1.00;;;;;;4953431;29;20882;-52
2022/05/04 04:05:39;;;;;;;17.87;11.70;;;12.00;1.00;;;;;;4954792;29;20397;-52
2022/05/04 04:08:05;;;;;;;18.80;12.40;;;12.10;1.00;;;;;;4954042;29;20424;-52
2022/05/04 04:10:30;;;;;;;24.55;12.90;;;12.00;1.00;;;;;;4954708;29;20397;-53
2022/05/04 04:12:56;;;;;;;18.80;12.38;;;12.10;1.00;;;;;;4954274;29;20393;-52
2022/05/04 04:15:22;;;;;;;19.40;12.13;;;12.20;1.00;;;;;;4953460;29;20457;-52
2022/05/04 04:17:47;;;;;;;16.10;11.48;;;12.30;1.00;;;;;;4954506;29;20402;-52
2022/05/04 04:23:00;;;;;;;20.40;13.32;;;12.40;1.00;;;;;;4942404;29;20427;-52
2022/05/04 04:25:26;;;;;;;19.65;13.52;;;12.30;1.00;;;;;;4943577;29;20415;-52
2022/05/04 04:27:51;;;;;;;19.13;13.40;;;12.20;1.00;;;;;;4935566;29;20423;-52
2022/05/04 04:30:17;;;;;;;17.70;12.93;;;12.20;1.00;;;;;;4947528;29;20428;-52
2022/05/04 04:32:43;;;;;;;18.30;12.07;;;12.30;1.00;;;;;;4946805;29;20424;-52
2022/05/04 04:35:09;;;;;;;19.07;13.00;;;12.40;1.00;;;;;;4940456;29;20607;-52
2022/05/04 04:37:34;;;;;;;17.70;12.10;;;12.40;1.00;;;;;;4934740;29;20431;-52
2022/05/04 04:40:00;;;;;;;18.30;12.87;;;12.50;1.00;;;;;;4933303;29;20479;-52
2022/05/04 04:42:25;;;;;;;19.30;13.50;;;12.50;1.00;;;;;;4935647;29;20812;-52
2022/05/04 04:44:51;;;;;;;20.83;13.23;;;12.40;1.00;;;;;;4941688;29;20812;-52
2022/05/04 04:47:17;;;;;;;19.60;13.00;;;12.30;1.00;;;;;;4946522;29;20421;-52
2022/05/04 04:49:42;;;;;;;19.00;12.77;;;12.20;1.00;;;;;;4945938;28;20419;-53
2022/05/04 04:52:08;;;;;;;16.90;12.00;;;12.20;1.00;;;;;;4941183;29;20438;-52
2022/05/04 04:54:33;;;;;;;17.70;11.87;;;12.20;1.00;;;;;;4939355;29;20881;-53
2022/05/04 04:56:59;;;;;;;18.88;12.15;;;12.30;1.00;;;;;;4935623;29;20407;-52
2022/05/04 04:59:25;;;;;;;17.15;11.82;;;12.30;1.00;;;;;;4939005;29;20780;-52
2022/05/04 05:01:50;;;;;;;17.07;11.93;;;12.40;1.00;;;;;;4948453;29;20416;-52
2022/05/04 05:04:16;;;;;;;17.08;11.07;;;12.40;1.00;;;;;;4947813;29;20496;-52
2022/05/04 05:06:42;;;;;;;16.37;11.50;;;12.40;1.00;;;;;;4946731;28;20522;-52
2022/05/04 05:09:07;;;;;;;17.40;10.90;;;12.50;99.90;;;;;;4933631;29;20423;-52
2022/05/04 05:11:33;;;;;;;16.47;11.37;;;12.50;99.90;;;;;;4945472;29;20824;-53
2022/05/04 05:16:43;;;;;;;18.25;11.70;;;12.50;99.90;;;;;;4950804;29;20401;-52
2022/05/04 05:19:08;;;;;;;16.53;11.70;;;12.50;99.90;;;;;;4942721;29;20415;-52
2022/05/04 05:21:34;;;;;;;16.10;11.13;;;12.50;99.90;;;;;;4949352;29;20851;-53
2022/05/04 05:23:59;;;;;;;15.43;11.17;;;12.60;99.90;;;;;;4936812;28;20471;-52
2022/05/04 05:26:25;;;;;;;18.03;11.63;;;12.80;99.90;;;;;;4933271;29;20419;-53
2022/05/04 05:28:51;;;;;;;18.65;11.27;;;12.80;99.90;;;;;;4935271;29;20430;-53
2022/05/04 05:31:16;;;;;;;15.20;10.80;;;12.90;99.90;;;;;;4941510;29;20868;-52
2022/05/04 05:33:45;;;;;;;14.87;10.77;;;13.10;99.90;;;;;;4944243;29;20411;-52
2022/05/04 05:36:11;;;;;;;16.80;11.05;;;13.10;99.90;;;;;;4941081;29;20457;-52
2022/05/04 05:38:36;;;;;;;16.73;11.43;;;13.10;99.90;;;;;;4952651;29;20402;-52
2022/05/04 05:41:02;;;;;;;17.80;11.07;;;13.20;99.90;;;;;;4946235;29;20444;-52
2022/05/04 05:43:28;;;;;;;17.10;11.00;;;13.30;99.90;;;;;;4939369;29;20422;-52
2022/05/04 05:45:54;;;;;;;18.80;11.63;;;13.20;99.90;;;;;;4941500;29;20496;-53
2022/05/04 05:48:20;;;;;;;18.17;12.23;;;13.10;99.90;;;;;;4952159;28;20541;-52
2022/05/04 05:50:49;;;;;;;17.27;11.50;;;13.10;99.90;;;;;;4940445;28;20424;-52
2022/05/04 05:53:14;;;;;;;18.73;11.90;;;12.90;99.90;;;;;;4933672;29;20531;-52
2022/05/04 05:55:40;;;;;;;19.08;12.20;;;12.90;99.90;;;;;;4939752;29;20879;-52
2022/05/04 05:58:06;;;;;;;18.45;12.40;;;13.10;99.90;;;;;;4947376;29;20484;-52
2022/05/04 06:00:32;;;;;;;17.83;12.30;;;13.40;99.90;;;;;;4938999;29;20907;-52
2022/05/04 06:02:58;;;;;;;17.97;11.80;;;13.30;99.90;;;;;;4932607;29;20408;-52
2022/05/04 06:05:24;;;;;;;21.40;13.32;;;13.40;99.90;;;;;;4941337;29;20421;-52
2022/05/04 06:07:49;;;;;;;18.97;12.23;;;13.50;99.90;;;;;;4941727;29;20426;-52
2022/05/04 06:10:15;;;;;;;17.38;12.63;;;13.80;99.90;;;;;;4937689;29;20503;-52
2022/05/04 06:12:41;;;;;;;19.33;12.90;;;14.00;99.90;;;;;;4942772;29;20444;-52
2022/05/04 06:15:10;;;;;;;18.08;12.43;;;14.00;99.90;;;;;;4948966;29;20792;-52
2022/05/04 06:17:37;;;;;;;23.23;13.10;;;14.10;99.90;;;;;;4942773;29;20398;-52
2022/05/04 06:20:04;;;;;;;18.05;12.20;;;14.20;99.90;;;;;;4940087;28;20458;-52
2022/05/04 06:22:37;;;;;;;24.85;13.18;;;14.40;99.90;;;;;;5105538;27;20869;-51
2022/05/04 06:25:03;;;;;;;17.48;12.57;;;14.60;99.90;;;;;;5075973;28;20403;-51
2022/05/04 06:27:32;;;;;;;18.80;13.25;;;14.80;99.90;;;;;;5073934;28;20445;-51
2022/05/04 06:35:26;;;;;;;20.08;12.75;;;15.10;99.90;;;;;;5080860;28;20778;-51
2022/05/04 06:37:52;;;;;;;22.77;13.40;;;15.10;99.90;;;;;;5079083;28;20495;-51
2022/05/04 06:40:18;;;;;;;19.08;13.00;;;15.30;99.90;;;;;;5059777;28;20396;-51
2022/05/04 06:42:44;;;;;;;20.83;13.20;;;15.40;99.90;;;;;;5081442;28;20401;-52
2022/05/04 06:45:10;;;;;;;19.87;13.23;;;15.40;99.90;;;;;;5077802;28;20397;-51
2022/05/04 06:47:35;;;;;;;18.27;13.00;;;15.40;99.90;;;;;;5076749;28;20879;-51
2022/05/04 06:50:03;;;;;;;19.37;12.57;;;15.40;99.90;;;;;;5071995;28;20371;-51
2022/05/04 06:52:31;;;;;;;17.30;12.60;;;15.40;99.90;;;;;;5078838;28;20415;-51
2022/05/04 06:54:57;;;;;;;18.88;13.43;;;15.60;99.90;;;;;;5082924;28;20467;-51
2022/05/04 06:57:22;;;;;;;18.30;12.60;;;15.60;99.90;;;;;;5077905;28;20860;-51
2022/05/04 06:59:48;;;;;;;20.00;13.35;;;15.80;99.90;;;;;;5068151;28;20415;-51
2022/05/04 07:02:14;;;;;;;17.37;12.40;;;15.90;99.90;;;;;;5069042;28;20568;-51
2022/05/04 07:04:40;;;;;;;19.45;12.20;;;15.80;99.90;;;;;;5073584;28;20908;-51
2022/05/04 07:07:06;;;;;;;19.95;12.15;;;16.00;99.90;;;;;;5080056;28;20399;-51
2022/05/04 07:09:33;;;;;;;18.08;11.80;;;16.10;99.90;;;;;;5073596;28;20747;-51
2022/05/04 07:11:59;;;;;;;18.00;11.87;;;15.80;99.90;;;;;;5065696;28;20500;-51
2022/05/04 07:14:25;;;;;;;17.23;11.77;;;15.70;99.90;;;;;;5065449;28;20392;-51
2022/05/04 07:16:50;;;;;;;16.70;12.00;;;15.60;99.90;;;;;;5070139;28;20403;-51
2022/05/04 07:19:16;;;;;;;18.80;12.20;;;15.50;99.90;;;;;;5084557;28;20466;-51
2022/05/04 07:21:43;;;;;;;16.07;11.33;;;15.30;99.90;;;;;;5073313;28;20477;-51
2022/05/04 07:24:08;;;;;;;20.03;12.13;;;15.40;99.90;;;;;;5071143;28;20387;-51
2022/05/04 07:26:34;;;;;;;16.83;11.77;;;15.30;99.90;;;;;;5084351;28;20879;-51
2022/05/04 07:29:00;;;;;;;17.50;10.97;;;15.30;99.90;;;;;;5071507;28;20395;-52
2022/05/04 07:31:25;;;;;;;16.53;10.60;;;15.30;99.90;;;;;;5077944;28;20440;-51
2022/05/04 07:33:51;;;;;;;17.10;10.88;;;15.20;99.90;;;;;;5058597;28;20395;-52
2022/05/04 07:36:16;;;;;;;15.60;10.07;;;15.30;99.90;;;;;;5051142;28;20446;-52
2022/05/04 07:38:42;;;;;;;18.60;10.30;;;15.40;99.90;;;;;;5059947;28;20818;-51
2022/05/04 07:43:52;;;;;;;15.15;9.63;;;15.50;99.90;;;;;;5070816;28;20415;-52
2022/05/04 07:46:18;;;;;;;15.93;10.13;;;15.60;99.90;;;;;;5062852;28;20393;-51
2022/05/04 07:48:44;;;;;;;15.15;10.73;;;15.90;99.90;;;;;;5070691;28;20412;-52
2022/05/04 07:51:11;;;;;;;15.50;10.30;;;16.20;99.90;;;;;;5057613;28;20432;-52
2022/05/04 07:53:37;;;;;;;15.52;10.38;;;16.50;99.90;;;;;;5055897;28;20416;-52
2022/05/04 07:56:03;;;;;;;18.33;10.53;;;16.70;99.90;;;;;;5060573;28;20391;-52
2022/05/04 07:58:29;;;;;;;14.18;10.93;;;17.00;99.90;;;;;;5064105;28;20413;-51
2022/05/04 08:06:23;;;;;;;15.07;11.10;;;17.20;99.90;;;;;;5068473;28;20702;-52
2022/05/04 08:08:48;;;;;;;19.02;11.60;;;17.20;99.90;;;;;;5057618;28;20860;-52
2022/05/04 08:11:14;;;;;;;14.87;10.90;;;17.40;99.90;;;;;;5061909;28;20727;-52
2022/05/04 08:13:40;;;;;;;16.33;12.20;;;17.40;99.90;;;;;;5058686;28;20793;-52
2022/05/04 08:16:07;;;;;;;14.33;11.10;;;17.50;99.90;;;;;;5050587;28;20480;-52
2022/05/04 08:18:33;;;;;;;14.23;10.30;;;17.60;99.90;;;;;;5051052;28;20396;-52
2022/05/04 08:20:59;;;;;;;14.55;10.60;;;17.60;99.90;;;;;;5053455;28;20463;-52
2022/05/04 08:23:25;;;;;;;17.77;10.88;;;17.50;99.90;;;;;;5050101;28;20404;-52
2022/05/04 08:25:51;;;;;;;15.63;11.10;;;17.40;99.90;;;;;;5068026;28;20392;-52
2022/05/04 08:28:18;;;;;;;18.80;11.53;;;17.60;99.90;;;;;;5052355;28;20408;-52
2022/05/04 08:30:43;;;;;;;17.67;10.68;;;17.70;99.90;;;;;;5053949;28;20498;-52
2022/05/04 08:33:09;;;;;;;15.37;10.80;;;17.50;99.90;;;;;;5065174;28;20485;-51
2022/05/04 08:35:34;;;;;;;18.40;11.10;;;17.70;99.90;;;;;;5058412;28;20391;-52
2022/05/04 08:38:00;;;;;;;14.07;10.23;;;17.60;99.90;;;;;;5057543;28;20383;-52
2022/05/04 08:40:26;;;;;;;13.93;9.90;;;17.60;99.90;;;;;;5050090;28;20405;-51
2022/05/04 08:42:52;;;;;;;13.30;9.97;;;17.50;99.90;;;;;;5051040;28;20751;-51
2022/05/04 08:45:18;;;;;;;13.88;10.32;;;17.70;99.90;;;;;;5056322;28;20600;-51
2022/05/04 08:47:45;;;;;;;14.68;10.20;;;18.20;99.90;;;;;;5057756;28;20421;-52
2022/05/04 08:50:16;;;;;;;14.50;10.50;;;18.80;99.90;;;;;;5060888;28;20384;-51
2022/05/04 08:52:51;;;;;;;14.82;11.30;;;19.80;99.90;;;;;;5070272;28;20380;-52
2022/05/04 08:55:18;;;;;;;13.68;9.80;;;20.80;99.90;;;;;;5055985;28;20404;-52
2022/05/04 08:57:44;;;;;;;14.70;9.77;;;;;;;;;;5059308;28;20694;-53
2022/05/04 09:00:10;;;;;;;13.25;9.27;;;23.40;99.90;;;;;;5058912;28;20393;-52
2022/05/04 09:02:38;;;;;;;13.82;9.88;;;23.70;99.90;;;;;;5066549;28;20426;-51
2022/05/04 09:05:39;;;;;;;13.45;10.70;;;25.60;99.90;;;;;;5055144;28;20445;-52
2022/05/04 09:08:05;;;;;;;13.20;11.60;;;26.00;99.90;;;;;;5038743;28;20488;-52
2022/05/04 09:10:32;;;;;;;14.55;11.70;;;26.20;99.90;;;;;;5066861;28;20388;-52
2022/05/04 09:13:02;;;;;;;16.67;13.57;;;26.60;99.90;;;;;;5054967;28;20400;-52
2022/05/04 09:15:32;;;;;;;12.30;9.63;;;27.20;99.90;;;;;;5053015;28;20409;-52
2022/05/04 09:18:07;;;;;;;13.98;11.20;;;28.30;99.90;;;;;;5056059;28;20405;-52
2022/05/04 09:20:53;;;;;;;13.30;9.75;;;29.40;99.90;;;;;;5063384;28;20914;-52
2022/05/04 09:23:20;;;;;;;17.50;13.90;;;29.00;99.90;;;;;;5056372;28;20408;-52
2022/05/04 09:25:53;;;;;;;15.70;12.60;;;26.50;99.90;;;;;;5057251;28;20492;-52
2022/05/04 09:28:20;;;;;;;15.60;13.90;;;25.60;99.90;;;;;;5049762;28;20405;-52
2022/05/04 09:30:51;;;;;;;17.55;13.77;;;25.90;99.90;;;;;;5066180;28;20444;-52
2022/05/04 09:33:22;;;;;;;18.17;13.05;;;26.40;99.90;;;;;;5049531;28;20409;-52
2022/05/04 09:35:49;;;;;;;17.47;14.90;;;25.20;99.90;;;;;;5050181;28;20401;-52
2022/05/04 09:46:50;;;;;;;16.02;12.15;;;20.60;99.90;;;;;;5051122;28;20476;-52
2022/05/04 09:49:21;;;;;;;18.20;12.37;;;20.10;99.90;;;;;;5054298;28;20402;-52
2022/05/04 09:51:49;;;;;;;16.77;12.80;;;19.80;99.90;;;;;;5055791;28;20413;-51
2022/05/04 09:54:18;;;;;;;16.60;12.23;;;19.70;99.90;;;;;;5048583;28;20416;-51
2022/05/04 09:56:49;;;;;;;18.75;12.40;;;19.40;99.90;;;;;;5049214;28;20836;-54
2022/05/04 09:59:17;;;;;;;16.40;12.20;;;19.40;99.90;;;;;;5065648;28;20411;-54
2022/05/04 10:01:43;;;;;;;18.60;12.52;;;19.30;99.90;;;;;;5049813;28;20417;-54
2022/05/04 10:04:10;;;;;;;16.77;12.20;;;19.00;99.90;;;;;;5049533;28;20459;-54
2022/05/04 10:06:37;;;;;;;18.25;11.88;;;19.00;99.90;;;;;;5056637;28;20412;-54
2022/05/04 10:09:05;;;;;;;17.17;11.80;;;18.80;99.90;;;;;;5060955;28;20412;-54
2022/05/04 10:11:35;;;;;;;15.48;12.05;;;18.70;99.90;;;;;;5068791;28;20383;-54
2022/05/04 10:14:10;;;;;;;17.08;11.85;;;18.60;99.90;;;;;;5062644;28;20469;-54
2022/05/04 10:16:55;;;;;;;15.65;11.45;;;18.60;99.90;;;;;;5058362;28;20411;-54
2022/05/04 10:19:26;;;;;;;16.80;11.85;;;18.70;99.90;;;;;;5053923;28;20917;-54
2022/05/04 10:21:55;;;;;;;19.05;12.40;;;18.80;99.90;;;;;;5049443;28;20425;-54
2022/05/04 10:24:22;;;;;;;15.80;11.13;;;18.90;99.90;;;;;;5056331;28;20379;-54
2022/05/04 10:26:48;;;;;;;17.20;12.00;;;19.00;99.90;;;;;;5068711;28;20387;-54
2022/05/04 10:32:28;;;;;;;18.48;11.90;;;18.40;99.90;;;;;;5067282;28;20483;-51
2022/05/04 10:35:09;;;;;;;16.45;11.77;;;18.50;99.90;;;;;;5067357;28;20453;-54
2022/05/04 10:37:50;;;;;;;15.55;11.68;;;18.60;99.90;;;;;;5056105;28;20843;-51
2022/05/04 10:40:23;;;;;;;16.08;11.07;;;18.70;99.90;;;;;;5054857;28;20787;-51
2022/05/04 10:42:56;;;;;;;15.38;11.32;;;18.90;99.90;;;;;;5056564;28;20866;-52
2022/05/04 10:45:24;;;;;;;17.05;11.20;;;19.00;99.90;;;;;;5048296;28;20417;-51
2022/05/04 10:47:50;;;;;;;14.43;11.30;;;19.40;99.90;;;;;;5055538;28;20391;-51
2022/05/04 10:50:19;;;;;;;15.98;10.70;;;19.60;99.90;;;;;;5053399;28;20402;-52
2022/05/04 10:52:48;;;;;;;14.02;10.43;;;19.70;99.90;;;;;;5050403;28;20840;-52
2022/05/04 10:55:14;;;;;;;15.07;11.10;;;19.90;99.90;;;;;;5053443;28;20392;-52
2022/05/04 10:57:42;;;;;;;16.38;12.18;;;19.90;99.90;;;;;;5054624;28;20703;-52
2022/05/04 11:00:10;;;;;;;16.38;10.90;;;19.70;99.90;;;;;;5053435;28;20461;-52
2022/05/04 11:02:42;;;;;;;15.20;11.23;;;19.90;99.90;;;;;;5068559;28;20426;-52
2022/05/04 11:05:12;;;;;;;14.10;10.90;;;20.10;99.90;;;;;;5055546;28;20425;-52
2022/05/04 11:07:37;;;;;;;15.57;12.60;;;20.20;99.90;;;;;;5056835;28;20770;-52
2022/05/04 11:10:03;;;;;;;13.97;10.87;;;20.70;99.90;;;;;;5059633;28;20423;-52
2022/05/04 11:12:29;;;;;;;14.27;10.30;;;20.60;99.90;;;;;;5067181;28;20389;-52
2022/05/04 11:14:55;;;;;;;12.97;10.53;;;20.50;99.90;;;;;;5063119;28;20408;-52
2022/05/04 11:17:21;;;;;;;12.02;9.88;;;20.60;99.90;;;;;;5065824;28;21097;-52
2022/05/04 11:19:48;;;;;;;12.80;9.60;;;20.60;99.90;;;;;;5059093;28;20453;-52
2022/05/04 11:22:15;;;;;;;12.65;9.60;;;20.70;99.90;;;;;;5068404;28;20961;-52
2022/05/04 11:24:42;;;;;;;13.30;9.55;;;21.10;99.90;;;;;;5070243;28;20395;-52
2022/05/04 11:27:07;;;;;;;13.38;10.25;;;21.20;99.90;;;;;;5067068;28;20508;-52
2022/05/04 11:29:33;;;;;;;13.70;9.90;;;21.20;99.90;;;;;;5064411;28;20892;-52
2022/05/04 11:32:02;;;;;;;13.48;9.70;;;21.30;99.90;;;;;;5068110;28;20407;-52
2022/05/04 11:34:38;;;;;;;13.10;9.68;;;21.40;99.90;;;;;;5059193;28;20524;-52
2022/05/04 11:37:06;;;;;;;12.80;9.40;;;21.60;99.90;;;;;;5056685;28;20500;-52
2022/05/04 11:39:33;;;;;;;12.90;9.55;;;21.60;99.90;;;;;;5070619;28;20384;-53
2022/05/04 11:42:00;;;;;;;11.15;7.75;;;21.80;99.90;;;;;;5069740;28;20411;-53
2022/05/04 11:44:27;;;;;;;12.40;8.05;;;22.00;99.90;;;;;;5069075;28;20426;-52
2022/05/04 11:46:55;;;;;;;10.85;6.80;;;22.20;99.90;;;;;;5067902;28;20458;-52
2022/05/04 11:49:23;;;;;;;9.00;5.97;;;22.60;99.90;;;;;;5065358;28;20398;-52
2022/05/04 11:51:50;;;;;;;10.38;6.60;;;23.20;99.90;;;;;;5069345;28;20403;-52
2022/05/04 11:54:16;;;;;;;8.65;5.72;;;23.50;99.90;;;;;;5063343;28;20424;-52
2022/05/04 11:56:42;;;;;;;7.70;4.60;;;23.70;99.90;;;;;;5070126;28;20449;-52
2022/05/04 11:59:08;;;;;;;7.30;5.00;;;23.80;99.90;;;;;;5068525;28;20401;-52
2022/05/04 12:01:35;;;;;;;7.72;4.70;;;23.90;99.90;;;;;;5068190;28;20892;-53
2022/05/04 12:04:02;;;;;;;8.90;4.72;;;24.10;99.90;;;;;;5062518;28;20791;-52
2022/05/04 12:06:28;;;;;;;9.00;4.40;;;24.20;99.90;;;;;;5061540;28;20411;-52
2022/05/04 12:08:54;;;;;;;9.18;5.43;;;24.00;99.90;;;;;;5064010;28;20734;-52
2022/05/04 12:11:22;;;;;;;7.60;5.10;;;23.60;99.90;;;;;;5062240;28;20403;-52
2022/05/04 12:13:49;;;;;;;7.65;5.10;;;23.50;99.90;;;;;;5063867;28;20822;-52
2022/05/04 12:16:15;;;;;;;8.23;5.65;;;23.40;99.90;;;;;;5063265;28;20406;-52
2022/05/04 12:18:41;;;;;;;9.07;5.70;;;23.30;99.90;;;;;;5060402;28;20392;-52
2022/05/04 12:21:12;;;;;;;10.48;6.20;;;23.40;99.90;;;;;;5056967;28;20462;-52
2022/05/04 12:23:41;;;;;;;9.27;5.90;;;23.30;99.90;;;;;;5063684;28;20505;-52
2022/05/04 12:26:11;;;;;;;8.80;5.60;;;23.60;99.90;;;;;;5058067;28;20401;-53
2022/05/04 12:28:38;;;;;;;8.93;6.15;;;23.80;99.90;;;;;;5069211;28;20391;-52
2022/05/04 12:33:49;;;;;;;11.30;7.00;;;23.70;99.90;;;;;;5059899;28;20426;-52
2022/05/04 12:36:17;;;;;;;9.65;6.45;;;23.60;99.90;;;;;;5056146;28;20405;-53
2022/05/04 12:38:46;;;;;;;10.63;6.90;;;23.80;99.90;;;;;;5058097;28;20401;-53
2022/05/04 12:41:14;;;;;;;8.90;6.60;;;23.50;99.90;;;;;;5067322;28;20438;-52
2022/05/04 12:43:40;;;;;;;10.73;7.20;;;23.50;99.90;;;;;;5059948;28;20424;-53
2022/05/04 12:46:12;;;;;;;9.57;6.90;;;23.40;99.90;;;;;;5053311;28;20889;-52
2022/05/04 12:48:42;;;;;;;8.90;6.50;;;23.60;99.90;;;;;;5054807;28;20431;-52
2022/05/04 12:51:09;;;;;;;10.05;6.80;;;23.90;99.90;;;;;;5056077;28;20422;-52
2022/05/04 12:53:35;;;;;;;9.10;6.20;;;23.60;99.90;;;;;;5069252;28;20428;-52
2022/05/04 12:58:45;;;;;;;8.23;5.73;;;22.90;99.90;;;;;;5052085;28;20785;-52
2022/05/04 13:01:12;;;;;;;9.63;5.90;;;22.80;99.90;;;;;;5069351;28;20412;-52
2022/05/04 13:03:37;;;;;;;8.88;5.90;;;22.70;99.90;;;;;;5070571;28;20379;-52
2022/05/04 13:06:03;;;;;;;8.85;5.38;;;22.60;99.90;;;;;;5067001;28;20403;-52
2022/05/04 13:08:29;;;;;;;9.10;6.50;;;22.70;99.90;;;;;;5069361;28;20390;-53
2022/05/04 13:10:54;;;;;;;9.10;6.30;;;22.70;99.90;;;;;;5048963;28;20486;-52
2022/05/04 13:13:22;;;;;;;11.40;6.47;;;22.20;99.90;;;;;;5067123;28;20473;-52
2022/05/04 13:15:51;;;;;;;12.20;6.30;;;21.90;99.90;;;;;;5067306;28;20411;-52
2022/05/04 13:18:17;;;;;;;9.23;6.70;;;22.00;99.90;;;;;;5058432;28;20448;-52